createdAt,value
2017-11-06T00:00:25.856Z,36.40
2017-11-06T00:02:52.000Z,26.10
2017-11-06T00:05:18.140Z,28.63
2017-11-06T00:07:44.269Z,31.23
2017-11-06T00:10:10.429Z,32.90
2017-11-06T00:12:36.708Z,32.93
2017-11-06T00:15:02.980Z,27.40
2017-11-06T00:17:29.185Z,29.57
2017-11-06T00:19:55.410Z,22.47
2017-11-06T00:22:21.545Z,24.43
2017-11-06T00:24:47.689Z,29.10
2017-11-06T00:27:13.880Z,25.07
2017-11-06T00:29:40.130Z,21.97
2017-11-06T00:32:06.384Z,25.03
2017-11-06T00:34:32.610Z,25.87
2017-11-06T00:36:58.812Z,26.63
2017-11-06T00:39:25.023Z,28.90
2017-11-06T00:41:51.143Z,28.00
2017-11-06T00:44:17.337Z,25.80
2017-11-06T00:46:44.262Z,29.87
2017-11-06T00:49:10.429Z,22.77
2017-11-06T00:51:36.721Z,25.60
2017-11-06T00:54:02.982Z,32.20
2017-11-06T00:56:29.124Z,31.00
2017-11-06T00:58:55.369Z,25.10
2017-11-06T01:01:21.509Z,35.70
2017-11-06T01:03:47.659Z,22.83
2017-11-06T01:06:13.916Z,26.00
2017-11-06T01:08:40.873Z,31.73
2017-11-06T01:11:07.802Z,30.50
2017-11-06T01:13:33.955Z,22.33
2017-11-06T01:16:00.070Z,24.97
2017-11-06T01:18:26.177Z,22.53
2017-11-06T01:20:52.300Z,24.23
2017-11-06T01:23:18.517Z,24.87
2017-11-06T01:25:44.713Z,24.33
2017-11-06T01:28:10.881Z,21.80
2017-11-06T01:30:37.102Z,19.57
2017-11-06T01:33:03.260Z,22.13
2017-11-06T01:35:29.511Z,25.17
2017-11-06T01:37:55.723Z,25.03
2017-11-06T01:40:21.866Z,26.33
2017-11-06T01:42:48.053Z,19.80
2017-11-06T01:45:14.982Z,24.70
2017-11-06T01:47:41.218Z,24.30
2017-11-06T01:50:07.542Z,26.00
2017-11-06T01:52:33.669Z,22.53
2017-11-06T01:54:59.779Z,23.00
2017-11-06T01:57:25.888Z,29.30
2017-11-06T01:59:52.003Z,24.23
2017-11-06T02:02:18.081Z,24.87
2017-11-06T02:04:45.053Z,21.47
2017-11-06T02:07:11.209Z,35.50
2017-11-06T02:09:37.381Z,19.67
2017-11-06T02:12:03.626Z,19.97
2017-11-06T02:14:30.795Z,22.90
2017-11-06T02:16:57.031Z,20.60
2017-11-06T02:19:23.302Z,20.47
2017-11-06T02:21:49.493Z,18.30
2017-11-06T02:24:15.635Z,18.23
2017-11-06T02:26:41.790Z,17.53
2017-11-06T02:29:08.005Z,24.17
2017-11-06T02:31:34.147Z,18.33
2017-11-06T02:34:00.317Z,12.23
2017-11-06T02:36:27.245Z,21.90
2017-11-06T02:38:53.348Z,12.37
2017-11-06T02:41:19.528Z,15.87
2017-11-06T02:43:45.656Z,12.70
2017-11-06T02:46:11.738Z,21.70
2017-11-06T02:48:38.654Z,18.40
2017-11-06T02:51:04.766Z,21.60
2017-11-06T02:53:30.979Z,20.80
2017-11-06T02:55:57.237Z,16.10
2017-11-06T02:58:24.201Z,17.07
2017-11-06T03:00:50.373Z,19.73
2017-11-06T03:03:16.517Z,16.07
2017-11-06T03:05:42.739Z,14.80
2017-11-06T03:08:08.953Z,21.33
2017-11-06T03:10:35.155Z,21.67
2017-11-06T03:13:02.085Z,19.60
2017-11-06T03:15:28.208Z,15.40
2017-11-06T03:17:54.398Z,18.53
2017-11-06T03:20:21.265Z,13.13
2017-11-06T03:22:48.115Z,11.50
2017-11-06T03:25:14.999Z,12.57
2017-11-06T03:27:42.189Z,17.20
2017-11-06T03:30:08.342Z,19.63
2017-11-06T03:32:34.593Z,20.87
2017-11-06T03:35:00.690Z,17.70
2017-11-06T03:37:26.834Z,17.60
2017-11-06T03:39:53.020Z,16.57
2017-11-06T03:42:19.240Z,19.80
2017-11-06T03:44:45.465Z,13.70
2017-11-06T03:47:11.627Z,17.13
2017-11-06T03:49:37.862Z,22.13
2017-11-06T03:52:04.071Z,19.43
2017-11-06T03:54:30.254Z,16.10
2017-11-06T03:56:56.442Z,17.40
2017-11-06T03:59:22.525Z,14.27
2017-11-06T04:01:48.667Z,17.40
2017-11-06T04:04:16.417Z,16.83
2017-11-06T04:06:42.520Z,15.90
2017-11-06T04:09:08.640Z,15.07
2017-11-06T04:11:34.870Z,17.60
2017-11-06T04:14:01.781Z,17.53
2017-11-06T04:16:27.923Z,17.80
2017-11-06T04:21:51.958Z,17.53
2017-11-06T04:24:18.158Z,14.03
2017-11-06T04:26:44.303Z,21.30
2017-11-06T04:29:10.476Z,15.80
2017-11-06T04:31:36.685Z,10.83
2017-11-06T04:34:08.769Z,12.80
2017-11-06T04:36:34.910Z,14.07
2017-11-06T04:39:01.093Z,14.47
2017-11-06T04:41:27.299Z,21.00
2017-11-06T04:43:53.491Z,16.67
2017-11-06T04:46:19.723Z,15.83
2017-11-06T04:48:46.674Z,18.00
2017-11-06T04:51:12.862Z,12.67
2017-11-06T04:53:39.002Z,13.73
2017-11-06T04:56:05.186Z,14.40
2017-11-06T04:58:32.170Z,19.03
2017-11-06T05:00:58.381Z,14.33
2017-11-06T05:03:24.592Z,15.87
2017-11-06T05:05:50.730Z,13.13
2017-11-06T05:08:16.971Z,18.03
2017-11-06T05:10:43.141Z,11.63
2017-11-06T05:13:09.345Z,13.37
2017-11-06T05:15:35.470Z,18.03
2017-11-06T05:18:01.720Z,11.60
2017-11-06T05:20:27.829Z,16.17
2017-11-06T05:22:53.968Z,21.97
2017-11-06T05:25:20.099Z,16.80
2017-11-06T05:27:46.278Z,15.63
2017-11-06T05:30:12.414Z,16.73
2017-11-06T05:32:38.588Z,15.30
2017-11-06T05:35:05.530Z,15.80
2017-11-06T05:37:31.753Z,21.90
2017-11-06T05:39:58.001Z,14.67
2017-11-06T05:42:24.119Z,13.73
2017-11-06T05:44:50.335Z,14.10
2017-11-06T05:47:16.570Z,15.27
2017-11-06T05:49:43.495Z,22.30
2017-11-06T05:52:09.695Z,17.13
2017-11-06T05:54:35.857Z,19.47
2017-11-06T05:57:01.973Z,20.67
2017-11-06T05:59:28.127Z,24.33
2017-11-06T06:01:54.280Z,22.57
2017-11-06T06:04:20.407Z,16.07
2017-11-06T06:06:46.529Z,16.67
2017-11-06T06:09:12.686Z,18.03
2017-11-06T06:11:38.852Z,17.97
2017-11-06T06:14:05.158Z,14.73
2017-11-06T06:16:31.326Z,19.43
2017-11-06T06:18:57.528Z,14.63
2017-11-06T06:21:23.657Z,18.60
2017-11-06T06:23:49.810Z,16.70
2017-11-06T06:26:15.954Z,17.73
2017-11-06T06:28:42.078Z,17.10
2017-11-06T06:31:08.267Z,16.20
2017-11-06T06:33:35.190Z,20.40
2017-11-06T06:36:01.422Z,22.33
2017-11-06T06:38:27.630Z,18.30
2017-11-06T06:40:53.721Z,18.37
2017-11-06T06:43:20.026Z,22.23
2017-11-06T06:45:46.156Z,17.23
2017-11-06T06:48:12.411Z,17.73
2017-11-06T06:50:38.568Z,21.00
2017-11-06T06:53:04.719Z,20.63
2017-11-06T06:55:31.431Z,24.77
2017-11-06T06:57:57.570Z,18.63
2017-11-06T07:00:23.772Z,24.23
2017-11-06T07:02:50.689Z,16.90
2017-11-06T07:05:16.936Z,17.30
2017-11-06T07:07:43.076Z,16.40
2017-11-06T07:10:09.290Z,19.17
2017-11-06T07:12:35.384Z,24.20
2017-11-06T07:15:02.270Z,23.57
2017-11-06T07:17:28.373Z,21.60
2017-11-06T07:19:55.233Z,19.93
2017-11-06T07:22:22.093Z,22.07
2017-11-06T07:24:49.154Z,21.60
2017-11-06T07:27:15.988Z,30.60
2017-11-06T07:29:42.249Z,18.10
2017-11-06T07:32:09.108Z,23.03
2017-11-06T07:34:35.290Z,19.47
2017-11-06T07:37:01.805Z,23.03
2017-11-06T07:39:28.077Z,22.23
2017-11-06T07:41:54.248Z,22.87
2017-11-06T07:44:20.490Z,18.40
2017-11-06T07:46:46.723Z,16.60
2017-11-06T07:49:12.842Z,18.70
2017-11-06T07:51:38.971Z,14.57
2017-11-06T07:54:05.093Z,20.07
2017-11-06T07:56:31.185Z,15.97
2017-11-06T07:58:57.313Z,21.13
2017-11-06T08:01:23.418Z,18.63
2017-11-06T08:03:49.559Z,18.10
2017-11-06T08:06:15.862Z,18.50
2017-11-06T08:08:42.710Z,23.60
2017-11-06T08:11:09.573Z,22.57
2017-11-06T08:13:35.750Z,25.03
2017-11-06T08:16:01.850Z,22.27
2017-11-06T08:18:28.728Z,18.60
2017-11-06T08:20:55.609Z,19.50
2017-11-06T08:23:21.751Z,16.20
2017-11-06T08:25:47.893Z,16.53
2017-11-06T08:28:14.015Z,15.63
2017-11-06T08:30:40.122Z,15.70
2017-11-06T08:33:06.245Z,16.23
2017-11-06T08:35:33.161Z,21.30
2017-11-06T08:37:59.420Z,16.73
2017-11-06T08:40:25.591Z,16.87
2017-11-06T08:42:52.478Z,17.90
2017-11-06T08:45:18.597Z,22.10
2017-11-06T08:47:44.741Z,21.30
2017-11-06T08:50:10.874Z,22.13
2017-11-06T08:52:36.981Z,19.07
2017-11-06T08:55:03.099Z,22.53
2017-11-06T08:57:29.272Z,17.13
2017-11-06T08:59:56.182Z,15.43
2017-11-06T09:02:22.292Z,16.73
2017-11-06T09:04:48.414Z,22.20
2017-11-06T09:07:14.594Z,17.93
2017-11-06T09:09:40.743Z,20.10
2017-11-06T09:12:06.891Z,18.00
2017-11-06T09:14:33.033Z,19.30
2017-11-06T09:16:59.115Z,19.67
2017-11-06T09:19:25.233Z,20.90
2017-11-06T09:21:52.116Z,26.73
2017-11-06T09:24:18.205Z,28.43
2017-11-06T09:26:44.323Z,16.10
2017-11-06T09:29:10.415Z,18.47
2017-11-06T09:31:36.533Z,28.60
2017-11-06T09:34:03.448Z,15.57
2017-11-06T09:36:29.541Z,18.90
2017-11-06T09:38:55.642Z,16.63
2017-11-06T09:41:21.770Z,19.90
2017-11-06T09:43:47.858Z,15.27
2017-11-06T09:46:13.979Z,16.23
2017-11-06T09:48:40.858Z,20.00
2017-11-06T09:51:06.949Z,18.27
2017-11-06T09:53:33.127Z,32.83
2017-11-06T09:55:59.290Z,19.37
2017-11-06T09:58:25.389Z,18.90
2017-11-06T10:00:52.230Z,23.47
2017-11-06T10:03:19.155Z,21.00
2017-11-06T10:05:45.269Z,16.40
2017-11-06T10:08:11.482Z,20.97
2017-11-06T10:10:37.654Z,23.37
2017-11-06T10:13:03.774Z,20.47
2017-11-06T10:15:29.870Z,22.97
2017-11-06T10:17:56.010Z,26.77
2017-11-06T10:20:22.142Z,25.87
2017-11-06T10:22:48.930Z,17.87
2017-11-06T10:25:15.986Z,23.77
2017-11-06T10:27:42.198Z,18.70
2017-11-06T10:30:08.574Z,18.47
2017-11-06T10:32:34.734Z,14.63
2017-11-06T10:35:00.898Z,16.60
2017-11-06T10:37:27.031Z,23.00
2017-11-06T10:39:53.249Z,16.37
2017-11-06T10:42:19.376Z,13.10
2017-11-06T10:44:45.505Z,19.50
2017-11-06T10:47:12.654Z,14.53
2017-11-06T10:49:39.505Z,15.60
2017-11-06T10:52:06.364Z,16.67
2017-11-06T10:54:33.243Z,14.63
2017-11-06T10:56:59.410Z,21.10
2017-11-06T10:59:25.512Z,18.87
2017-11-06T11:01:51.669Z,14.90
2017-11-06T11:04:17.811Z,16.10
2017-11-06T11:06:43.918Z,15.83
2017-11-06T11:09:10.834Z,14.47
2017-11-06T11:11:36.959Z,23.37
2017-11-06T11:14:03.077Z,23.10
2017-11-06T11:16:29.196Z,11.47
2017-11-06T11:18:55.304Z,14.77
2017-11-06T11:21:21.423Z,14.30
2017-11-06T11:23:47.572Z,17.70
2017-11-06T11:26:13.665Z,21.70
2017-11-06T11:28:39.920Z,18.40
2017-11-06T11:31:06.042Z,12.60
2017-11-06T11:33:32.154Z,14.83
2017-11-06T11:35:59.005Z,11.40
2017-11-06T11:38:25.893Z,12.33
2017-11-06T11:40:51.991Z,10.33
2017-11-06T11:43:18.092Z,12.30
2017-11-06T11:45:44.275Z,11.50
2017-11-06T11:48:11.120Z,20.93
2017-11-06T11:50:37.229Z,18.17
2017-11-06T11:53:03.380Z,17.27
2017-11-06T11:55:29.487Z,12.37
2017-11-06T11:57:55.577Z,15.20
2017-11-06T12:00:22.454Z,11.20
2017-11-06T12:02:48.571Z,12.80
2017-11-06T12:05:15.402Z,12.87
2017-11-06T12:07:41.538Z,14.03
2017-11-06T12:10:07.695Z,10.60
2017-11-06T12:12:33.785Z,15.47
2017-11-06T12:14:59.956Z,14.17
2017-11-06T12:17:26.058Z,9.17
2017-11-06T12:19:52.162Z,11.00
2017-11-06T12:22:19.052Z,10.90
2017-11-06T12:24:45.179Z,15.30
2017-11-06T12:27:11.306Z,11.13
2017-11-06T12:29:37.439Z,19.07
2017-11-06T12:32:03.538Z,12.53
2017-11-06T12:34:29.654Z,10.90
2017-11-06T12:36:55.770Z,13.53
2017-11-06T12:39:21.903Z,15.80
2017-11-06T12:41:48.011Z,14.40
2017-11-06T12:44:14.867Z,9.37
2017-11-06T12:46:41.753Z,11.47
2017-11-06T12:49:07.854Z,8.63
2017-11-06T12:51:34.015Z,11.50
2017-11-06T12:54:00.845Z,17.60
2017-11-06T12:56:26.947Z,13.20
2017-11-06T12:58:53.070Z,11.47
2017-11-06T13:01:19.186Z,8.23
2017-11-06T13:03:45.306Z,8.37
2017-11-06T13:06:12.182Z,7.10
2017-11-06T13:08:38.286Z,6.53
2017-11-06T13:11:04.471Z,6.30
2017-11-06T13:13:30.586Z,6.50
2017-11-06T13:15:57.410Z,8.50
2017-11-06T13:18:23.518Z,12.30
2017-11-06T13:20:49.646Z,10.67
2017-11-06T13:23:15.735Z,11.60
2017-11-06T13:25:41.841Z,10.90
2017-11-06T13:28:07.999Z,9.63
2017-11-06T13:30:34.131Z,8.30
2017-11-06T13:33:00.253Z,7.73
2017-11-06T13:35:26.502Z,13.07
2017-11-06T13:37:52.623Z,12.20
2017-11-06T13:40:18.726Z,11.67
2017-11-06T13:42:45.590Z,8.10
2017-11-06T13:45:11.714Z,9.50
2017-11-06T13:47:38.546Z,11.40
2017-11-06T13:50:04.697Z,8.43
2017-11-06T13:52:31.523Z,12.40
2017-11-06T13:54:57.705Z,14.83
2017-11-06T13:57:23.833Z,41.23
2017-11-06T13:59:50.666Z,20.30
2017-11-06T14:02:16.785Z,10.33
2017-11-06T14:04:42.934Z,8.73
2017-11-06T14:07:09.046Z,14.60
2017-11-06T14:09:35.190Z,8.50
2017-11-06T14:12:01.839Z,9.90
2017-11-06T14:14:28.007Z,10.20
2017-11-06T14:16:54.099Z,11.73
2017-11-06T14:19:20.249Z,6.80
2017-11-06T14:21:46.348Z,12.23
2017-11-06T14:24:13.204Z,11.07
2017-11-06T14:26:40.113Z,14.93
2017-11-06T14:29:06.206Z,11.03
2017-11-06T14:31:32.355Z,9.90
2017-11-06T14:33:58.495Z,9.90
2017-11-06T14:36:24.614Z,10.00
2017-11-06T14:38:51.498Z,12.87
2017-11-06T14:41:17.633Z,8.40
2017-11-06T14:43:43.777Z,14.83
2017-11-06T14:46:09.859Z,8.47
2017-11-06T14:48:35.994Z,22.23
2017-11-06T14:51:02.154Z,9.80
2017-11-06T14:53:29.018Z,11.83
2017-11-06T14:55:55.890Z,9.33
2017-11-06T14:58:22.006Z,23.50
2017-11-06T15:00:48.893Z,9.10
2017-11-06T15:03:15.046Z,19.23
2017-11-06T15:05:41.194Z,12.10
2017-11-06T15:08:07.331Z,12.80
2017-11-06T15:10:33.455Z,20.97
2017-11-06T15:12:59.598Z,24.37
2017-11-06T15:15:25.741Z,14.83
2017-11-06T15:17:51.905Z,17.50
2017-11-06T15:20:18.002Z,15.63
2017-11-06T15:22:44.206Z,14.00
2017-11-06T15:25:11.069Z,14.20
2017-11-06T15:27:37.917Z,13.93
2017-11-06T15:30:04.765Z,14.67
2017-11-06T15:32:31.645Z,17.77
2017-11-06T15:34:57.757Z,21.70
2017-11-06T15:37:23.882Z,11.77
2017-11-06T15:39:50.008Z,14.90
2017-11-06T15:42:16.110Z,12.03
2017-11-06T15:44:42.217Z,12.87
2017-11-06T15:47:09.178Z,16.20
2017-11-06T15:49:35.269Z,12.60
2017-11-06T15:52:01.382Z,11.70
2017-11-06T15:54:27.523Z,14.60
2017-11-06T15:56:53.811Z,17.23
2017-11-06T15:59:19.955Z,11.40
2017-11-06T16:01:46.071Z,14.00
2017-11-06T16:04:12.216Z,12.33
2017-11-06T16:06:38.384Z,14.53
2017-11-06T16:09:04.527Z,12.77
2017-11-06T16:11:30.621Z,13.27
2017-11-06T16:13:56.899Z,12.90
2017-11-06T16:16:23.811Z,22.50
2017-11-06T16:18:49.934Z,25.53
2017-11-06T16:21:16.034Z,13.60
2017-11-06T16:23:42.905Z,18.20
2017-11-06T16:26:09.007Z,13.83
2017-11-06T16:28:35.133Z,19.37
2017-11-06T16:31:01.277Z,20.77
2017-11-06T16:33:27.669Z,18.00
2017-11-06T16:35:53.834Z,26.17
2017-11-06T16:38:19.970Z,15.93
2017-11-06T16:40:46.062Z,16.70
2017-11-06T16:43:12.168Z,25.90
2017-11-06T16:45:38.283Z,19.43
2017-11-06T16:48:04.399Z,14.93
2017-11-06T16:50:30.494Z,16.90
2017-11-06T16:52:56.633Z,16.63
2017-11-06T16:55:22.722Z,15.77
2017-11-06T16:57:48.830Z,17.57
2017-11-06T17:00:15.712Z,15.60
2017-11-06T17:02:41.818Z,29.17
2017-11-06T17:05:08.666Z,13.43
2017-11-06T17:07:35.569Z,21.47
2017-11-06T17:10:01.707Z,21.93
2017-11-06T17:12:27.819Z,19.37
2017-11-06T17:14:54.003Z,20.90
2017-11-06T17:17:20.099Z,19.00
2017-11-06T17:19:46.262Z,18.83
2017-11-06T17:22:12.468Z,20.37
2017-11-06T17:24:39.446Z,21.57
2017-11-06T17:27:06.197Z,19.20
2017-11-06T17:29:32.361Z,17.40
2017-11-06T17:31:59.074Z,21.83
2017-11-06T17:34:25.234Z,18.03
2017-11-06T17:36:51.355Z,21.37
2017-11-06T17:39:17.530Z,25.17
2017-11-06T17:41:43.680Z,20.27
2017-11-06T17:44:09.875Z,24.07
2017-11-06T17:46:36.003Z,22.03
2017-11-06T17:49:02.291Z,18.20
2017-11-06T17:51:28.383Z,43.63
2017-11-06T17:53:55.240Z,19.87
2017-11-06T17:56:21.362Z,20.00
2017-11-06T17:58:48.232Z,23.80
2017-11-06T18:01:14.338Z,24.77
2017-11-06T18:03:40.478Z,20.30
2017-11-06T18:06:06.571Z,23.10
2017-11-06T18:08:32.662Z,20.40
2017-11-06T18:10:58.782Z,20.63
2017-11-06T18:13:24.891Z,28.00
2017-11-06T18:15:51.043Z,19.30
2017-11-06T18:18:17.175Z,28.80
2017-11-06T18:20:43.288Z,30.53
2017-11-06T18:23:09.377Z,28.77
2017-11-06T18:25:35.538Z,37.23
2017-11-06T18:28:02.381Z,32.77
2017-11-06T18:30:28.478Z,35.40
2017-11-06T18:32:54.608Z,35.03
2017-11-06T18:35:20.748Z,29.53
2017-11-06T18:37:46.845Z,36.50
2017-11-06T18:40:13.745Z,41.97
2017-11-06T18:42:39.830Z,40.20
2017-11-06T18:45:05.926Z,44.97
2017-11-06T18:47:32.043Z,43.10
2017-11-06T18:49:58.164Z,44.93
2017-11-06T18:52:24.309Z,51.63
2017-11-06T18:54:50.481Z,57.23
2017-11-06T18:57:16.604Z,55.17
2017-11-06T18:59:42.730Z,57.23
2017-11-06T19:02:09.335Z,61.37
2017-11-06T19:04:35.465Z,62.27
2017-11-06T19:07:01.635Z,64.63
2017-11-06T19:09:27.746Z,53.67
2017-11-06T19:11:53.875Z,68.40
2017-11-06T19:14:20.006Z,64.93
2017-11-06T19:16:46.158Z,75.23
2017-11-06T19:19:12.262Z,65.37
2017-11-06T19:21:38.410Z,72.40
2017-11-06T19:24:04.505Z,61.73
2017-11-06T19:26:30.588Z,60.97
2017-11-06T19:28:56.724Z,68.67
2017-11-06T19:31:22.835Z,61.13
2017-11-06T19:33:48.950Z,65.57
2017-11-06T19:36:15.102Z,64.23
2017-11-06T19:38:41.950Z,64.47
2017-11-06T19:41:08.802Z,49.70
2017-11-06T19:43:35.657Z,53.37
2017-11-06T19:46:01.876Z,47.27
2017-11-06T19:48:28.015Z,48.33
2017-11-06T19:50:54.157Z,49.90
2017-11-06T19:53:20.257Z,51.83
2017-11-06T19:55:46.360Z,43.70
2017-11-06T19:58:13.294Z,45.30
2017-11-06T20:00:40.897Z,53.30
2017-11-06T20:03:07.936Z,46.27
2017-11-06T20:05:34.086Z,53.73
2017-11-06T20:08:00.172Z,46.80
2017-11-06T20:10:27.034Z,46.03
2017-11-06T20:12:55.084Z,46.53
2017-11-06T20:15:21.965Z,61.00
2017-11-06T20:17:48.160Z,61.40
2017-11-06T20:20:14.527Z,53.77
2017-11-06T20:22:40.868Z,64.97
2017-11-06T20:25:06.984Z,50.23
2017-11-06T20:27:33.149Z,59.77
2017-11-06T20:29:59.246Z,55.50
2017-11-06T20:32:25.471Z,54.87
2017-11-06T20:34:52.390Z,50.93
2017-11-06T20:37:18.539Z,55.90
2017-11-06T20:39:44.649Z,56.97
2017-11-06T20:42:10.775Z,50.50
2017-11-06T20:44:36.869Z,46.27
2017-11-06T20:47:03.707Z,48.80
2017-11-06T20:49:29.821Z,52.40
2017-11-06T20:51:55.952Z,59.70
2017-11-06T20:54:22.053Z,56.53
2017-11-06T20:56:48.918Z,57.23
2017-11-06T20:59:15.006Z,51.70
2017-11-06T21:01:41.132Z,59.80
2017-11-06T21:04:07.289Z,53.63
2017-11-06T21:06:33.514Z,56.83
2017-11-06T21:08:59.613Z,57.57
2017-11-06T21:11:25.802Z,57.23
2017-11-06T21:13:51.913Z,57.10
2017-11-06T21:16:18.013Z,57.13
2017-11-06T21:18:44.894Z,58.43
2017-11-06T21:21:11.090Z,59.37
2017-11-06T21:23:37.203Z,62.63
2017-11-06T21:26:03.353Z,54.77
2017-11-06T21:28:29.448Z,58.60
2017-11-06T21:30:55.586Z,62.30
2017-11-06T21:33:21.754Z,62.70
2017-11-06T21:35:47.945Z,66.47
2017-11-06T21:38:14.116Z,66.03
2017-11-06T21:40:40.270Z,82.03
2017-11-06T21:43:06.394Z,78.43
2017-11-06T21:45:32.522Z,87.53
2017-11-06T21:47:58.655Z,93.80
2017-11-06T21:50:25.156Z,90.77
2017-11-06T21:52:51.365Z,96.13
2017-11-06T21:55:17.794Z,78.37
2017-11-06T21:57:43.913Z,71.20
2017-11-06T22:00:10.085Z,70.57
2017-11-06T22:02:36.189Z,67.37
2017-11-06T22:05:02.299Z,70.73
2017-11-06T22:07:29.220Z,100.00
2017-11-06T22:09:55.330Z,79.87
2017-11-06T22:12:21.479Z,79.03
2017-11-06T22:14:47.572Z,79.30
2017-11-06T22:17:14.422Z,77.10
2017-11-06T22:19:40.513Z,74.33
2017-11-06T22:22:06.650Z,71.10
2017-11-06T22:24:32.734Z,82.30
2017-11-06T22:26:59.589Z,75.97
2017-11-06T22:29:25.698Z,71.33
2017-11-06T22:31:51.917Z,74.37
2017-11-06T22:34:18.118Z,82.20
2017-11-06T22:36:45.026Z,74.07
2017-11-06T22:39:11.134Z,71.27
2017-11-06T22:41:37.230Z,79.27
2017-11-06T22:44:03.359Z,63.73
2017-11-06T22:46:29.537Z,90.73
2017-11-06T22:48:55.664Z,80.97
2017-11-06T22:51:21.783Z,80.00
2017-11-06T22:53:47.915Z,80.23
2017-11-06T22:56:14.055Z,101.57
2017-11-06T22:58:40.190Z,79.90
2017-11-06T23:01:06.381Z,88.10
2017-11-06T23:03:32.536Z,92.50
2017-11-06T23:05:58.665Z,93.73
2017-11-06T23:08:24.850Z,97.30
2017-11-06T23:10:51.156Z,93.40
2017-11-06T23:13:17.275Z,77.83
2017-11-06T23:15:43.520Z,89.33
2017-11-06T23:18:09.729Z,74.57
2017-11-06T23:20:36.574Z,74.63
2017-11-06T23:23:03.445Z,72.63
2017-11-06T23:25:30.343Z,74.47
2017-11-06T23:27:56.450Z,74.47
2017-11-06T23:30:22.553Z,66.63
2017-11-06T23:32:48.781Z,60.67
2017-11-06T23:35:14.917Z,66.40
2017-11-06T23:37:41.053Z,62.90
2017-11-06T23:40:07.194Z,59.53
2017-11-06T23:42:33.318Z,64.17
2017-11-06T23:44:59.439Z,65.07
2017-11-06T23:47:25.637Z,69.83
2017-11-06T23:49:52.506Z,64.33
2017-11-06T23:52:18.638Z,86.73
2017-11-06T23:54:45.521Z,87.40
2017-11-06T23:57:11.638Z,76.87
2017-11-06T23:59:37.750Z,84.30
